createdAt,value
2018-12-25T00:01:11.619Z,97576.00
2018-12-25T00:04:01.923Z,97583.42
2018-12-25T00:06:52.191Z,97583.31
2018-12-25T00:09:42.577Z,97587.60
2018-12-25T00:12:33.164Z,97569.02
2018-12-25T00:15:23.394Z,97595.18
2018-12-25T00:18:13.672Z,97598.70
2018-12-25T00:21:03.972Z,97593.33
2018-12-25T00:23:54.590Z,97595.98
2018-12-25T00:26:45.385Z,97593.53
2018-12-25T00:29:35.671Z,97592.02
2018-12-25T00:32:26.221Z,97601.39
2018-12-25T00:35:16.789Z,97615.47
2018-12-25T00:38:07.016Z,97607.19
2018-12-25T00:46:25.482Z,97608.27
2018-12-25T00:49:14.718Z,97607.24
2018-12-25T00:52:00.390Z,97615.11
2018-12-25T00:54:50.640Z,97616.30
2018-12-25T00:57:41.178Z,97608.08
2018-12-25T01:00:31.555Z,97591.98
2018-12-25T01:03:21.771Z,97608.24
2018-12-25T01:06:12.396Z,97604.02
2018-12-25T01:09:02.819Z,97595.20
2018-12-25T01:11:53.464Z,97615.58
2018-12-25T01:14:43.753Z,97612.60
2018-12-25T01:17:34.038Z,97614.54
2018-12-25T01:20:24.535Z,97611.72
2018-12-25T01:23:15.345Z,97621.52
2018-12-25T01:26:05.661Z,97633.02
2018-12-25T01:28:56.205Z,97641.89
2018-12-25T01:31:46.492Z,97642.46
2018-12-25T01:34:37.036Z,97640.28
2018-12-25T01:37:27.403Z,97642.20
2018-12-25T01:40:17.645Z,97646.98
2018-12-25T01:43:07.930Z,97642.51
2018-12-25T01:46:00.673Z,97643.82
2018-12-25T01:48:50.882Z,97649.12
2018-12-25T01:51:33.553Z,97648.13
2018-12-25T01:54:23.807Z,97641.88
2018-12-25T01:57:06.867Z,97622.84
2018-12-25T01:59:57.363Z,97644.80
2018-12-25T02:02:40.287Z,97642.41
2018-12-25T02:05:30.569Z,97642.87
2018-12-25T02:08:13.232Z,97635.85
2018-12-25T02:11:03.482Z,97645.80
2018-12-25T02:13:46.491Z,97654.13
2018-12-25T02:16:36.763Z,97650.67
2018-12-25T02:19:19.934Z,97652.09
2018-12-25T02:22:10.235Z,97661.48
2018-12-25T02:25:00.469Z,97646.30
2018-12-25T02:27:43.593Z,97659.88
2018-12-25T02:30:33.909Z,97661.75
2018-12-25T02:33:24.190Z,97672.66
2018-12-25T02:36:14.425Z,97674.23
2018-12-25T02:39:17.360Z,97668.98
2018-12-25T02:42:00.388Z,97660.37
2018-12-25T02:44:50.762Z,97665.98
2018-12-25T02:47:41.127Z,97656.27
2018-12-25T02:50:31.720Z,97655.81
2018-12-25T02:56:13.094Z,97624.70
2018-12-25T02:59:03.297Z,97644.17
2018-12-25T03:01:47.480Z,97632.81
2018-12-25T03:04:37.726Z,97607.21
2018-12-25T03:07:20.108Z,97622.21
2018-12-25T03:10:10.319Z,97615.73
2018-12-25T03:12:52.668Z,97610.13
2018-12-25T03:15:42.862Z,97605.10
2018-12-25T03:18:29.592Z,97607.66
2018-12-25T03:21:19.866Z,97603.66
2018-12-25T03:24:10.045Z,97604.77
2018-12-25T03:26:53.220Z,97602.05
2018-12-25T03:29:43.808Z,97594.34
2018-12-25T03:32:15.345Z,97587.16
2018-12-25T03:35:05.664Z,97587.66
2018-12-25T03:37:55.950Z,97584.61
2018-12-25T03:40:46.118Z,97589.17
2018-12-25T03:43:36.316Z,97596.35
2018-12-25T03:46:27.320Z,97601.67
2018-12-25T03:49:10.504Z,97618.38
2018-12-25T03:52:01.055Z,97623.27
2018-12-25T03:54:44.158Z,97637.28
2018-12-25T03:57:34.367Z,97639.77
2018-12-25T04:00:17.165Z,97642.23
2018-12-25T04:03:07.397Z,97644.41
2018-12-25T04:05:50.878Z,97644.69
2018-12-25T04:08:41.108Z,97639.34
2018-12-25T04:11:24.197Z,97618.23
2018-12-25T04:14:14.374Z,97636.89
2018-12-25T04:16:57.267Z,97646.13
2018-12-25T04:19:48.289Z,97650.63
2018-12-25T04:22:31.229Z,97651.41
2018-12-25T04:25:21.419Z,97649.15
2018-12-25T04:28:04.121Z,97649.11
2018-12-25T04:33:49.773Z,97647.14
2018-12-25T04:36:40.237Z,97648.28
2018-12-25T04:39:31.273Z,97647.34
2018-12-25T04:42:21.487Z,97616.97
2018-12-25T04:45:04.798Z,97648.32
2018-12-25T04:47:54.970Z,97647.75
2018-12-25T04:50:38.119Z,97651.78
2018-12-25T04:53:28.342Z,97656.77
2018-12-25T04:56:18.578Z,97655.19
2018-12-25T04:59:00.875Z,97662.53
2018-12-25T05:01:51.115Z,97664.11
2018-12-25T05:07:29.198Z,97661.18
2018-12-25T05:10:19.369Z,97660.41
2018-12-25T05:13:02.696Z,97659.23
2018-12-25T05:15:52.855Z,97655.86
2018-12-25T05:18:36.043Z,97661.75
2018-12-25T05:21:26.247Z,97664.55
2018-12-25T05:24:09.207Z,97666.78
2018-12-25T05:26:59.685Z,97670.43
2018-12-25T05:29:43.444Z,97666.80
2018-12-25T05:32:33.633Z,97664.84
2018-12-25T05:35:16.356Z,97665.61
2018-12-25T05:38:06.558Z,97670.97
2018-12-25T05:40:49.031Z,97671.44
2018-12-25T05:43:39.238Z,97670.16
2018-12-25T05:46:21.943Z,97667.36
2018-12-25T05:49:12.111Z,97671.48
2018-12-25T05:51:54.977Z,97680.19
2018-12-25T05:54:45.530Z,97684.30
2018-12-25T05:57:31.938Z,97689.43
2018-12-25T06:00:22.567Z,97683.20
2018-12-25T06:03:05.566Z,97694.56
2018-12-25T06:05:55.763Z,97696.63
2018-12-25T06:08:39.010Z,97694.89
2018-12-25T06:11:29.214Z,97695.65
2018-12-25T06:14:11.657Z,97688.25
2018-12-25T06:17:02.170Z,97693.23
2018-12-25T06:19:45.036Z,97690.82
2018-12-25T06:22:35.582Z,97697.23
2018-12-25T06:25:18.134Z,97691.76
2018-12-25T06:28:08.629Z,97695.33
2018-12-25T06:30:55.219Z,97688.27
2018-12-25T06:33:45.386Z,97711.70
2018-12-25T06:36:27.864Z,97698.44
2018-12-25T06:39:18.052Z,97701.44
2018-12-25T06:42:07.223Z,97701.17
2018-12-25T06:44:57.702Z,97693.75
2018-12-25T06:47:43.188Z,97696.97
2018-12-25T06:50:33.747Z,97689.96
2018-12-25T06:53:16.842Z,97689.75
2018-12-25T06:56:07.032Z,97692.14
2018-12-25T06:58:50.047Z,97691.84
2018-12-25T07:01:40.230Z,97687.66
2018-12-25T07:04:23.263Z,97702.64
2018-12-25T07:07:13.445Z,97699.48
2018-12-25T07:09:56.145Z,97707.01
2018-12-25T07:12:46.342Z,97709.72
2018-12-25T07:21:33.861Z,97699.16
2018-12-25T07:24:16.429Z,97697.67
2018-12-25T07:27:07.047Z,97700.02
2018-12-25T07:29:57.299Z,97694.00
2018-12-25T07:32:47.521Z,97693.65
2018-12-25T07:35:37.869Z,97691.00
2018-12-25T07:38:28.145Z,97670.58
2018-12-25T07:41:18.601Z,97685.17
2018-12-25T07:44:28.075Z,97687.30
2018-12-25T07:47:18.366Z,97690.61
2018-12-25T07:50:09.149Z,97685.90
2018-12-25T07:52:59.840Z,97688.44
2018-12-25T07:55:50.019Z,97669.42
2018-12-25T07:58:40.311Z,97680.00
2018-12-25T08:01:30.551Z,97685.66
2018-12-25T08:04:14.063Z,97688.43
2018-12-25T08:08:15.740Z,97683.45
2018-12-25T08:11:05.497Z,97687.59
2018-12-25T08:13:55.415Z,97665.39
2018-12-25T08:16:45.249Z,97657.80
2018-12-25T08:19:35.372Z,97683.13
2018-12-25T08:22:19.652Z,97673.34
2018-12-25T08:27:51.739Z,97674.58
2018-12-25T08:30:41.513Z,97678.02
2018-12-25T08:33:24.274Z,97678.73
2018-12-25T08:36:14.398Z,97684.50
2018-12-25T08:38:57.146Z,97688.45
2018-12-25T08:41:46.880Z,97683.91
2018-12-25T08:44:36.698Z,97687.30
2018-12-25T08:47:19.296Z,97677.01
2018-12-25T08:50:10.558Z,97695.21
2018-12-25T08:52:53.464Z,97674.55
2018-12-25T08:55:43.555Z,97682.46
2018-12-25T08:58:26.414Z,97683.92
2018-12-25T09:01:16.199Z,97687.44
2018-12-25T09:03:58.593Z,97682.32
2018-12-25T09:06:48.338Z,97670.80
2018-12-25T09:09:31.100Z,97686.25
2018-12-25T09:12:20.828Z,97684.20
2018-12-25T09:15:10.615Z,97673.58
2018-12-25T09:17:52.726Z,97687.84
2018-12-25T09:20:42.482Z,97694.57
2018-12-25T09:23:32.188Z,97681.61
2018-12-25T09:26:22.760Z,97695.28
2018-12-25T09:31:57.220Z,97699.02
2018-12-25T09:34:48.036Z,97697.91
2018-12-25T09:37:31.312Z,97695.38
2018-12-25T09:40:02.069Z,97702.17
2018-12-25T09:42:51.819Z,97699.56
2018-12-25T09:45:35.156Z,97700.00
2018-12-25T09:48:18.040Z,97708.22
2018-12-25T09:51:07.936Z,97700.25
2018-12-25T09:53:57.741Z,97707.78
2018-12-25T09:56:47.717Z,97704.02
2018-12-25T09:59:37.560Z,97697.29
2018-12-25T10:02:27.328Z,97696.05
2018-12-25T10:05:09.760Z,97696.86
2018-12-25T10:07:59.584Z,97697.92
2018-12-25T10:10:49.382Z,97691.98
2018-12-25T10:13:39.203Z,97698.00
2018-12-25T10:16:29.478Z,97701.30
2018-12-25T10:19:19.291Z,97703.47
2018-12-25T10:22:09.201Z,97699.51
2018-12-25T10:24:59.334Z,97708.57
2018-12-25T10:27:49.492Z,97703.94
2018-12-25T10:30:40.223Z,97699.20
2018-12-25T10:33:30.018Z,97676.87
2018-12-25T10:36:19.870Z,97699.93
2018-12-25T10:39:09.682Z,97695.56
2018-12-25T10:41:59.532Z,97672.33
2018-12-25T10:44:49.374Z,97702.63
2018-12-25T10:47:39.149Z,97680.59
2018-12-25T10:50:28.878Z,97692.97
2018-12-25T10:53:10.911Z,97693.22
2018-12-25T10:56:00.660Z,97668.22
2018-12-25T10:58:43.513Z,97681.73
2018-12-25T11:01:36.091Z,97683.68
2018-12-25T11:04:25.921Z,97680.34
2018-12-25T11:07:15.730Z,97659.69
2018-12-25T11:10:06.360Z,97677.94
2018-12-25T11:12:56.181Z,97673.16
2018-12-25T11:15:46.001Z,97673.16
2018-12-25T11:18:35.814Z,97675.38
2018-12-25T11:21:25.599Z,97668.31
2018-12-25T11:24:15.387Z,97668.19
2018-12-25T11:27:05.129Z,97659.48
2018-12-25T11:29:47.281Z,97668.86
2018-12-25T11:32:37.192Z,97672.89
2018-12-25T11:35:26.958Z,97667.95
2018-12-25T11:38:35.549Z,97664.95
2018-12-25T11:44:05.981Z,97672.72
2018-12-25T11:46:55.748Z,97666.70
2018-12-25T11:49:38.615Z,97645.13
2018-12-25T11:52:28.750Z,97671.81
2018-12-25T11:55:12.987Z,97675.73
2018-12-25T11:58:02.749Z,97677.83
2018-12-25T12:00:45.395Z,97678.66
2018-12-25T12:03:35.725Z,97677.44
2018-12-25T12:06:18.919Z,97673.69
2018-12-25T12:09:09.494Z,97674.84
2018-12-25T12:11:53.508Z,97676.89
2018-12-25T12:15:02.321Z,97670.86
2018-12-25T12:17:45.205Z,97657.83
2018-12-25T12:20:35.223Z,97670.41
2018-12-25T12:23:18.229Z,97672.27
2018-12-25T12:26:08.293Z,97648.68
2018-12-25T12:28:51.359Z,97666.65
2018-12-25T12:31:22.121Z,97659.91
2018-12-25T12:34:12.159Z,97668.95
2018-12-25T12:36:54.479Z,97665.62
2018-12-25T12:39:44.961Z,97660.34
2018-12-25T12:42:35.057Z,97670.94
2018-12-25T12:45:17.422Z,97667.17
2018-12-25T12:48:07.313Z,97656.89
2018-12-25T12:50:57.248Z,97677.06
2018-12-25T12:53:43.676Z,97669.33
2018-12-25T12:56:26.217Z,97677.44
2018-12-25T13:01:58.651Z,97664.97
2018-12-25T13:04:48.772Z,97663.08
2018-12-25T13:07:31.028Z,97649.68
2018-12-25T13:10:20.892Z,97663.02
2018-12-25T13:13:03.280Z,97660.22
2018-12-25T13:15:53.352Z,97650.52
2018-12-25T13:18:36.200Z,97647.61
2018-12-25T13:21:26.824Z,97644.34
2018-12-25T13:24:09.450Z,97646.70
2018-12-25T13:26:59.615Z,97654.08
2018-12-25T13:29:50.383Z,97660.55
2018-12-25T13:32:33.722Z,97651.92
2018-12-25T13:35:23.839Z,97654.84
2018-12-25T13:38:14.047Z,97655.95
2018-12-25T13:41:04.151Z,97658.20
2018-12-25T13:43:54.295Z,97665.49
2018-12-25T13:46:51.540Z,97665.31
2018-12-25T13:49:32.850Z,97655.98
2018-12-25T13:55:19.488Z,97679.66
2018-12-25T13:58:09.316Z,97668.43
2018-12-25T14:00:56.333Z,97672.27
2018-12-25T14:03:46.208Z,97680.50
2018-12-25T14:06:17.003Z,97682.45
2018-12-25T14:09:08.423Z,97682.52
2018-12-25T14:11:52.680Z,97678.02
2018-12-25T14:14:42.808Z,97687.55
2018-12-25T14:17:25.642Z,97689.30
2018-12-25T14:20:15.756Z,97686.00
2018-12-25T14:22:58.330Z,97691.86
2018-12-25T14:25:48.472Z,97688.83
2018-12-25T14:28:32.578Z,97700.56
2018-12-25T14:31:22.640Z,97699.59
2018-12-25T14:37:03.665Z,97701.86
2018-12-25T14:39:47.569Z,97709.84
2018-12-25T14:42:32.261Z,97708.14
2018-12-25T14:45:15.068Z,97704.78
2018-12-25T14:48:05.286Z,97720.97
2018-12-25T14:50:55.509Z,97719.91
2018-12-25T14:53:47.703Z,97710.12
2018-12-25T14:56:37.879Z,97693.36
2018-12-25T14:59:28.062Z,97713.27
2018-12-25T15:02:18.344Z,97713.35
2018-12-25T15:05:08.536Z,97690.56
2018-12-25T15:07:58.711Z,97705.19
2018-12-25T15:10:48.887Z,97698.13
2018-12-25T15:13:39.366Z,97715.76
2018-12-25T15:16:29.270Z,97716.95
2018-12-25T15:19:19.886Z,97710.64
2018-12-25T15:28:08.850Z,97685.61
2018-12-25T15:30:58.414Z,97698.77
2018-12-25T15:33:40.845Z,97680.25
2018-12-25T15:36:30.645Z,97698.59
2018-12-25T15:39:17.697Z,97699.48
2018-12-25T15:42:07.539Z,97697.33
2018-12-25T15:44:50.519Z,97688.73
2018-12-25T15:47:40.660Z,97699.87
2018-12-25T15:50:23.121Z,97700.52
2018-12-25T15:53:13.213Z,97700.78
2018-12-25T15:55:59.791Z,97710.00
2018-12-25T15:58:49.856Z,97706.86
2018-12-25T16:04:36.428Z,97711.92
2018-12-25T16:07:07.263Z,97716.19
2018-12-25T16:09:57.434Z,97710.73
2018-12-25T16:12:40.035Z,97708.54
2018-12-25T16:15:30.285Z,97724.20
2018-12-25T16:18:20.241Z,97720.37
2018-12-25T16:21:08.630Z,97721.37
2018-12-25T16:23:51.101Z,97721.02
2018-12-25T16:26:41.161Z,97725.94
2018-12-25T16:29:24.052Z,97729.05
2018-12-25T16:32:14.182Z,97703.94
2018-12-25T16:34:56.529Z,97726.59
2018-12-25T16:37:47.755Z,97727.73
2018-12-25T16:40:30.932Z,97726.39
2018-12-25T16:43:01.716Z,97724.67
2018-12-25T16:46:10.789Z,97732.62
2018-12-25T16:48:53.736Z,97733.30
2018-12-25T16:51:43.304Z,97713.03
2018-12-25T16:54:33.420Z,97721.98
2018-12-25T17:00:16.914Z,97720.74
2018-12-25T17:03:08.330Z,97715.98
2018-12-25T17:06:17.352Z,97709.64
2018-12-25T17:09:08.098Z,97720.88
2018-12-25T17:11:57.938Z,97733.30
2018-12-25T17:14:47.692Z,97732.13
2018-12-25T17:17:56.552Z,97724.32
2018-12-25T17:20:38.578Z,97726.32
2018-12-25T17:23:28.318Z,97725.44
2018-12-25T17:26:10.820Z,97718.71
2018-12-25T17:28:52.992Z,97720.91
2018-12-25T17:31:35.626Z,97726.09
2018-12-25T17:34:25.385Z,97722.20
2018-12-25T17:37:15.257Z,97727.13
2018-12-25T17:39:57.660Z,97726.02
2018-12-25T17:42:47.532Z,97720.41
2018-12-25T17:45:37.340Z,97726.99
2018-12-25T17:48:27.194Z,97724.38
2018-12-25T17:51:16.963Z,97724.40
2018-12-25T17:54:10.677Z,97709.16
2018-12-25T17:56:50.468Z,97722.83
2018-12-25T17:59:40.225Z,97722.71
2018-12-25T18:02:29.968Z,97729.78
2018-12-25T18:05:00.929Z,97736.00
2018-12-25T18:07:50.667Z,97733.16
2018-12-25T18:16:30.145Z,97719.10
2018-12-25T18:19:14.467Z,97724.13
2018-12-25T18:22:04.244Z,97724.63
2018-12-25T18:24:46.469Z,97729.27
2018-12-25T18:27:36.213Z,97730.61
2018-12-25T18:30:18.897Z,97733.11
2018-12-25T18:33:08.679Z,97709.38
2018-12-25T18:35:51.125Z,97726.25
2018-12-25T18:38:40.877Z,97712.63
2018-12-25T18:41:23.419Z,97736.61
2018-12-25T18:44:13.167Z,97732.38
2018-12-25T18:46:55.386Z,97735.19
2018-12-25T18:49:45.135Z,97726.31
2018-12-25T18:52:28.113Z,97721.82
2018-12-25T18:55:17.853Z,97704.38
2018-12-25T18:58:00.702Z,97732.09
2018-12-25T19:00:50.774Z,97715.78
2018-12-25T19:03:33.521Z,97714.70
2018-12-25T19:06:23.279Z,97730.75
2018-12-25T19:09:06.509Z,97728.17
2018-12-25T19:11:56.257Z,97729.61
2018-12-25T19:14:43.365Z,97734.41
2018-12-25T19:17:33.069Z,97736.90
2018-12-25T19:20:15.241Z,97717.16
2018-12-25T19:23:05.012Z,97710.61
2018-12-25T19:25:47.164Z,97723.67
2018-12-25T19:28:36.949Z,97720.45
2018-12-25T19:31:19.857Z,97713.91
2018-12-25T19:34:09.641Z,97718.34
2018-12-25T19:36:52.557Z,97715.45
2018-12-25T19:39:42.343Z,97710.25
2018-12-25T19:42:24.446Z,97712.16
2018-12-25T19:45:14.221Z,97709.55
2018-12-25T19:47:56.288Z,97706.25
2018-12-25T19:50:46.016Z,97705.31
2018-12-25T19:53:28.459Z,97686.05
2018-12-25T19:56:18.252Z,97698.56
2018-12-25T19:59:01.213Z,97703.43
2018-12-25T20:01:50.947Z,97697.39
2018-12-25T20:05:18.815Z,97693.72
2018-12-25T20:08:46.657Z,97691.34
2018-12-25T20:11:48.230Z,97690.08
2018-12-25T20:15:16.089Z,97689.50
2018-12-25T20:18:18.019Z,97676.83
2018-12-25T20:21:45.892Z,97677.63
2018-12-25T20:27:50.024Z,97673.88
2018-12-25T20:31:17.882Z,97675.54
2018-12-25T20:34:18.903Z,97673.80
2018-12-25T20:37:46.770Z,97659.16
2018-12-25T20:40:48.361Z,97655.16
2018-12-25T20:44:16.292Z,97652.59
2018-12-25T20:47:06.616Z,97643.13
2018-12-25T20:50:34.542Z,97639.78
2018-12-25T20:53:23.343Z,97639.63
2018-12-25T20:56:24.589Z,97633.02
2018-12-25T20:59:52.542Z,97646.03
2018-12-25T21:02:56.843Z,97648.14
2018-12-25T21:06:24.684Z,97650.71
2018-12-25T21:09:26.343Z,97656.43
2018-12-25T21:12:54.422Z,97646.91
2018-12-25T21:15:56.653Z,97642.27
2018-12-25T21:19:24.625Z,97630.61
2018-12-25T21:22:52.616Z,97621.75
2018-12-25T21:26:20.566Z,97622.21
2018-12-25T21:29:02.949Z,97620.95
2018-12-25T21:31:52.857Z,97612.97
2018-12-25T21:34:42.649Z,97593.86
2018-12-25T21:37:32.471Z,97614.48
2018-12-25T21:43:36.273Z,97602.92
2018-12-25T21:46:26.298Z,97590.98
2018-12-25T21:49:16.295Z,97586.34
2018-12-25T21:52:06.283Z,97585.58
2018-12-25T21:54:56.335Z,97577.45
2018-12-25T21:57:46.054Z,97592.85
2018-12-25T22:00:36.222Z,97590.09
2018-12-25T22:03:45.034Z,97585.43
2018-12-25T22:06:27.945Z,97582.03
2018-12-25T22:09:17.737Z,97580.13
2018-12-25T22:12:00.361Z,97586.38
2018-12-25T22:14:50.150Z,97585.91
2018-12-25T22:17:32.595Z,97556.72
2018-12-25T22:20:47.427Z,97576.41
2018-12-25T22:23:29.876Z,97571.45
2018-12-25T22:26:19.660Z,97579.34
2018-12-25T22:29:02.017Z,97560.31
2018-12-25T22:31:51.801Z,97570.73
2018-12-25T22:37:36.547Z,97572.72
2018-12-25T22:40:07.635Z,97565.27
2018-12-25T22:42:57.397Z,97564.95
2018-12-25T22:45:39.680Z,97558.94
2018-12-25T22:48:29.502Z,97560.38
2018-12-25T22:51:13.365Z,97562.28
2018-12-25T22:54:03.233Z,97559.84
2018-12-25T22:56:53.085Z,97557.19
2018-12-25T23:00:01.995Z,97547.99
2018-12-25T23:02:51.811Z,97555.78
2018-12-25T23:05:41.640Z,97536.97
2018-12-25T23:08:31.459Z,97550.14
2018-12-25T23:11:21.238Z,97551.20
2018-12-25T23:14:10.980Z,97558.42
2018-12-25T23:17:00.760Z,97549.71
2018-12-25T23:19:44.345Z,97553.48
2018-12-25T23:22:34.096Z,97545.86
2018-12-25T23:25:17.007Z,97568.71
2018-12-25T23:28:08.672Z,97569.96
2018-12-25T23:30:51.957Z,97569.34
2018-12-25T23:33:41.742Z,97560.84
2018-12-25T23:36:23.925Z,97566.00
2018-12-25T23:39:13.704Z,97564.27
2018-12-25T23:41:55.697Z,97558.23
2018-12-25T23:44:45.502Z,97549.61
2018-12-25T23:53:53.583Z,97564.36
2018-12-25T23:56:43.722Z,97549.98
2018-12-25T23:59:30.813Z,97572.67
